首页
METAR-TAF:

METAR-TAF

机场 :

里士满国际机场

里士满, 弗吉尼亚州, 美国

纬度: 37-30-40N, 经度: 077-19-24W, 海拔: 51米

当前天气观测

该预报发布于56分钟前的09:54 UTC
风速5节,风向东南
温度 17°C
湿度 94%
气压 1005 hPa
能見度: 14.5公里
多云层高于6500英尺
阴天层高于15000英尺

METAR: KRIC 260954Z 14005KT 9SM BKN065 OVC150 17/16 A2968 RMK AO2 SLP055 T01720156

时间: 06:50 (10:50 UTC)

预报

该预报发布于5小时和30分钟前的05:20 UTC
预报有效从26日的 06点(UTC)到 27日的 06点(UTC)
风速4节,风向
能見度: 10公里
散云层高于6000英尺
多云层高于15000英尺
从 26日的 1200点(UTC)
风速10节,风向
能見度: 10公里
多云层高于5000英尺
阴天层高于8000英尺
附近有阵雨
从 26日的 1600点(UTC)
风速15节,风向南转西南,有时为25节阵风
能見度: 6.4公里
多云层高于5000英尺
阵雨
短暂存在
从 26日的 18点(UTC)到 26日的 21点(UTC)
风速35节,风向多变
能見度: 3.2公里
阴天层高于3500英尺, 积雨云.
雷暴, 雨, 轻雾
从 26日的 2200点(UTC)
风速12节,风向西,有时为20节阵风
能見度: 9.7公里
阴天层高于4000英尺
小阵雨
从 27日的 0000点(UTC)
风速12节,风向西转西北
能見度: 10公里
多云层高于6000英尺

TAF: KRIC 260520Z 2606/2706 10004KT P6SM SCT060 BKN150 FM261200 19010KT P6SM VCSH BKN050 OVC080 FM261600 20015G25KT 4SM SHRA BKN050 TEMPO 2618/2621 VRB35KT 2SM TSRA BR OVC035CB FM262200 26012G20KT 6SM -SHRA OVC040 FM270000 29012KT P6SM BKN060

超过4000个机场的气象观测和天气预报(METAR&TAF报告)。

可查询的气象台以黄色和红色小点在地图上表示。

将鼠标移到小点上方,可查看气象台名称。

然后点击查看天气观测和预报。

如需切换地图:点击带黑十字的绿色按钮放大地图;点击带横线的绿色按钮缩小地图;或者点击绿色箭头查看邻近地区的地图。


METAR-TAF: